createdAt,value
2023-05-18T00:01:55.504Z,5.20
2023-05-18T00:04:44.153Z,4.93
2023-05-18T00:07:34.267Z,4.72
2023-05-18T00:10:22.350Z,5.30
2023-05-18T00:13:10.182Z,4.40
2023-05-18T00:16:01.008Z,4.70
2023-05-18T00:18:48.871Z,4.13
2023-05-18T00:21:36.602Z,4.10
2023-05-18T00:24:24.930Z,3.85
2023-05-18T00:27:12.847Z,4.82
2023-05-18T00:30:03.458Z,5.13
2023-05-18T00:32:51.183Z,4.95
2023-05-18T00:35:39.097Z,4.50
2023-05-18T00:38:26.777Z,4.05
2023-05-18T00:41:14.383Z,4.30
2023-05-18T00:44:02.117Z,4.60
2023-05-18T00:46:50.466Z,4.00
2023-05-18T00:49:38.159Z,4.78
2023-05-18T00:52:27.101Z,4.72
2023-05-18T00:55:14.793Z,4.47
2023-05-18T00:58:02.947Z,5.03
2023-05-18T01:00:50.850Z,4.82
2023-05-18T01:03:39.259Z,4.95
2023-05-18T01:06:29.060Z,4.28
2023-05-18T01:09:17.970Z,5.35
2023-05-18T01:12:41.124Z,4.20
2023-05-18T01:15:38.171Z,4.20
2023-05-18T01:19:03.027Z,4.60
2023-05-18T01:24:49.322Z,5.30
2023-05-18T01:27:42.482Z,4.45
2023-05-18T01:30:30.410Z,5.10
2023-05-18T01:33:18.501Z,5.20
2023-05-18T01:36:06.815Z,4.32
2023-05-18T01:38:56.361Z,5.38
2023-05-18T01:41:55.113Z,4.88
2023-05-18T01:44:54.089Z,4.70
2023-05-18T01:47:45.442Z,5.22
2023-05-18T01:50:40.370Z,5.30
2023-05-18T01:53:44.086Z,5.05
2023-05-18T01:56:34.083Z,4.88
2023-05-18T01:59:24.216Z,4.90
2023-05-18T02:02:12.449Z,6.18
2023-05-18T02:05:00.552Z,5.55
2023-05-18T02:07:48.541Z,5.88
2023-05-18T02:10:36.479Z,5.60
2023-05-18T02:13:24.520Z,4.95
2023-05-18T02:16:12.574Z,5.60
2023-05-18T02:19:00.495Z,6.55
2023-05-18T02:21:48.660Z,5.18
2023-05-18T02:24:36.437Z,5.82
2023-05-18T02:27:24.352Z,5.10
2023-05-18T02:30:15.159Z,5.50
2023-05-18T02:33:04.920Z,5.95
2023-05-18T02:35:53.506Z,5.47
2023-05-18T02:38:43.441Z,5.47
2023-05-18T02:41:31.687Z,5.32
2023-05-18T02:44:19.458Z,6.10
2023-05-18T02:47:09.756Z,7.07
2023-05-18T02:49:57.448Z,5.82
2023-05-18T02:52:46.044Z,5.75
2023-05-18T02:55:34.039Z,6.13
2023-05-18T02:58:25.944Z,6.10
2023-05-18T03:01:14.016Z,5.47
2023-05-18T03:04:02.266Z,5.65
2023-05-18T03:06:53.101Z,6.10
2023-05-18T03:09:40.984Z,5.10
2023-05-18T03:12:29.074Z,5.45
2023-05-18T03:15:16.999Z,5.53
2023-05-18T03:18:04.937Z,5.65
2023-05-18T03:20:53.076Z,7.15
2023-05-18T03:23:41.236Z,5.07
2023-05-18T03:26:31.243Z,5.55
2023-05-18T03:29:19.177Z,5.07
2023-05-18T03:32:07.737Z,5.13
2023-05-18T03:34:55.735Z,6.80
2023-05-18T03:37:43.800Z,5.43
2023-05-18T03:40:31.744Z,6.80
2023-05-18T03:43:19.429Z,5.47
2023-05-18T03:46:07.322Z,6.07
2023-05-18T03:48:55.332Z,5.07
2023-05-18T03:51:42.924Z,4.93
2023-05-18T03:54:33.657Z,5.90
2023-05-18T03:57:21.406Z,5.55
2023-05-18T04:00:14.970Z,5.85
2023-05-18T04:03:03.873Z,5.45
2023-05-18T04:05:52.446Z,5.70
2023-05-18T04:08:40.626Z,5.70
2023-05-18T04:11:28.589Z,5.28
2023-05-18T04:14:17.272Z,5.82
2023-05-18T04:17:06.741Z,6.22
2023-05-18T04:19:54.492Z,5.20
2023-05-18T04:22:44.034Z,5.72
2023-05-18T04:25:37.236Z,5.50
2023-05-18T04:28:25.115Z,5.20
2023-05-18T04:31:14.535Z,5.35
2023-05-18T04:34:02.302Z,5.70
2023-05-18T04:36:49.943Z,5.20
2023-05-18T04:39:39.741Z,4.63
2023-05-18T04:42:27.933Z,4.72
2023-05-18T04:45:17.855Z,4.38
2023-05-18T04:48:05.783Z,4.80
2023-05-18T04:50:54.508Z,4.60
2023-05-18T04:53:42.063Z,4.90
2023-05-18T04:56:30.095Z,4.40
2023-05-18T04:59:17.803Z,3.60
2023-05-18T05:02:05.902Z,4.93
2023-05-18T05:04:53.505Z,3.70
2023-05-18T05:07:41.132Z,3.72
2023-05-18T05:10:28.698Z,3.80
2023-05-18T05:13:16.336Z,3.58
2023-05-18T05:16:04.171Z,4.18
2023-05-18T05:18:51.776Z,4.10
2023-05-18T05:21:40.522Z,3.85
2023-05-18T05:24:28.220Z,4.00
2023-05-18T05:27:15.947Z,3.97
2023-05-18T05:30:04.959Z,4.35
2023-05-18T05:32:52.562Z,3.95
2023-05-18T05:35:40.134Z,3.80
2023-05-18T05:38:27.693Z,3.90
2023-05-18T05:41:15.525Z,3.45
2023-05-18T05:44:03.240Z,3.42
2023-05-18T05:46:51.365Z,3.25
2023-05-18T05:49:39.109Z,3.65
2023-05-18T05:52:29.116Z,3.33
2023-05-18T05:55:17.174Z,3.67
2023-05-18T05:58:05.544Z,3.63
2023-05-18T06:00:53.300Z,3.90
2023-05-18T06:03:41.038Z,3.35
2023-05-18T06:06:29.152Z,3.10
2023-05-18T06:09:16.949Z,3.50
2023-05-18T06:15:07.353Z,3.58
2023-05-18T06:17:59.069Z,3.30
2023-05-18T06:20:47.112Z,3.38
2023-05-18T06:23:34.875Z,3.42
2023-05-18T06:26:23.333Z,2.80
2023-05-18T06:29:10.993Z,3.45
2023-05-18T06:31:58.711Z,3.47
2023-05-18T06:34:47.389Z,3.42
2023-05-18T06:37:35.155Z,3.17
2023-05-18T06:40:22.920Z,3.67
2023-05-18T06:43:10.588Z,3.33
2023-05-18T06:45:58.220Z,2.95
2023-05-18T06:48:47.214Z,3.60
2023-05-18T06:51:35.259Z,3.20
2023-05-18T06:54:22.852Z,2.92
2023-05-18T06:57:10.890Z,3.50
2023-05-18T06:59:58.479Z,3.45
2023-05-18T07:02:47.544Z,2.90
2023-05-18T07:05:37.808Z,3.15
2023-05-18T07:08:27.050Z,3.60
2023-05-18T07:11:14.971Z,3.30
2023-05-18T07:14:02.609Z,3.40
2023-05-18T07:16:50.254Z,3.40
2023-05-18T07:19:37.889Z,3.72
2023-05-18T07:22:25.544Z,3.00
2023-05-18T07:25:13.345Z,3.13
2023-05-18T07:28:01.446Z,2.95
2023-05-18T07:30:49.243Z,3.97
2023-05-18T07:33:38.530Z,3.05
2023-05-18T07:36:29.894Z,3.40
2023-05-18T07:39:19.453Z,3.22
2023-05-18T07:42:09.248Z,3.50
2023-05-18T07:44:57.371Z,3.38
2023-05-18T07:47:45.021Z,3.25
2023-05-18T07:50:32.737Z,3.30
2023-05-18T07:53:20.465Z,3.03
2023-05-18T07:56:09.357Z,3.25
2023-05-18T07:58:58.460Z,2.88
2023-05-18T08:01:46.345Z,3.22
2023-05-18T08:04:34.591Z,3.28
2023-05-18T08:07:22.310Z,3.33
2023-05-18T08:10:10.850Z,3.45
2023-05-18T08:12:58.571Z,3.90
2023-05-18T08:15:56.128Z,3.45
2023-05-18T08:18:54.105Z,3.42
2023-05-18T08:21:45.736Z,3.20
2023-05-18T08:24:35.909Z,3.17
2023-05-18T08:27:24.760Z,3.55
2023-05-18T08:30:12.979Z,3.38
2023-05-18T08:33:04.330Z,3.10
2023-05-18T08:35:52.283Z,3.03
2023-05-18T08:38:42.593Z,3.20
2023-05-18T08:41:35.160Z,3.42
2023-05-18T08:44:36.148Z,2.88
2023-05-18T08:47:26.870Z,3.00
2023-05-18T08:50:24.144Z,3.30
2023-05-18T08:53:15.122Z,3.05
2023-05-18T08:56:04.393Z,3.03
2023-05-18T08:58:58.050Z,3.53
2023-05-18T09:01:47.346Z,2.90
2023-05-18T09:04:38.390Z,3.03
2023-05-18T09:07:30.501Z,2.97
2023-05-18T09:10:20.524Z,2.67
2023-05-18T09:13:12.281Z,3.08
2023-05-18T09:16:01.175Z,2.70
2023-05-18T09:18:50.130Z,2.75
2023-05-18T09:21:40.918Z,2.85
2023-05-18T09:24:33.453Z,3.38
2023-05-18T09:27:26.356Z,2.85
2023-05-18T09:30:15.370Z,2.35
2023-05-18T09:33:04.559Z,3.08
2023-05-18T09:35:55.085Z,2.78
2023-05-18T09:38:46.823Z,3.17
2023-05-18T09:41:41.450Z,2.95
2023-05-18T09:44:36.435Z,2.90
2023-05-18T09:47:24.097Z,2.95
2023-05-18T09:50:11.963Z,3.58
2023-05-18T09:53:01.931Z,2.97
2023-05-18T09:55:51.985Z,3.10
2023-05-18T09:58:42.402Z,3.33
2023-05-18T10:01:32.712Z,3.28
2023-05-18T10:04:22.048Z,3.08
2023-05-18T10:07:17.193Z,3.30
2023-05-18T10:10:07.822Z,3.42
2023-05-18T10:12:59.411Z,3.38
2023-05-18T10:15:55.746Z,2.80
2023-05-18T10:18:47.276Z,3.00
2023-05-18T10:21:37.050Z,3.08
2023-05-18T10:24:28.222Z,3.08
2023-05-18T10:27:20.284Z,2.90
2023-05-18T10:30:08.932Z,2.50
2023-05-18T10:32:59.467Z,2.92
2023-05-18T10:35:51.198Z,3.28
2023-05-18T10:38:40.638Z,2.47
2023-05-18T10:41:30.446Z,3.55
2023-05-18T10:44:19.956Z,3.00
2023-05-18T10:47:09.042Z,2.75
2023-05-18T10:50:01.521Z,3.65
2023-05-18T10:52:56.727Z,3.00
2023-05-18T10:55:44.667Z,3.40
2023-05-18T10:58:35.438Z,3.00
2023-05-18T11:01:25.601Z,3.00
2023-05-18T11:04:15.860Z,3.22
2023-05-18T11:07:05.021Z,2.83
2023-05-18T11:10:01.024Z,2.40
2023-05-18T11:12:50.513Z,2.95
2023-05-18T11:15:56.626Z,3.60
2023-05-18T11:18:53.147Z,3.15
2023-05-18T11:21:46.817Z,3.42
2023-05-18T11:24:40.778Z,4.40
2023-05-18T11:30:33.360Z,3.50
2023-05-18T11:33:32.436Z,3.03
2023-05-18T11:36:26.226Z,2.92
2023-05-18T11:39:25.100Z,3.25
2023-05-18T11:42:19.380Z,3.00
2023-05-18T11:45:13.219Z,3.60
2023-05-18T11:48:06.312Z,3.47
2023-05-18T11:50:56.700Z,3.73
2023-05-18T11:53:48.762Z,3.33
2023-05-18T11:56:41.249Z,3.40
2023-05-18T11:59:41.027Z,2.22
2023-05-18T12:02:35.221Z,3.15
2023-05-18T12:05:25.508Z,2.83
2023-05-18T12:08:20.710Z,2.60
2023-05-18T12:11:14.083Z,3.38
2023-05-18T12:14:07.411Z,2.85
2023-05-18T12:17:01.775Z,2.90
2023-05-18T12:19:52.249Z,2.90
2023-05-18T12:22:44.884Z,2.25
2023-05-18T12:25:36.027Z,3.10
2023-05-18T12:28:26.442Z,2.75
2023-05-18T12:31:17.163Z,2.28
2023-05-18T12:34:08.994Z,2.80
2023-05-18T12:36:59.964Z,2.60
2023-05-18T12:39:53.613Z,2.78
2023-05-18T12:42:56.053Z,2.58
2023-05-18T12:45:45.366Z,2.92
2023-05-18T12:48:38.443Z,2.90
2023-05-18T12:51:34.044Z,2.45
2023-05-18T12:54:30.206Z,2.58
2023-05-18T12:57:21.380Z,2.47
2023-05-18T13:00:12.626Z,2.65
2023-05-18T13:03:15.421Z,2.30
2023-05-18T13:06:11.635Z,2.45
2023-05-18T13:09:01.734Z,2.85
2023-05-18T13:12:06.143Z,3.30
2023-05-18T13:14:55.876Z,3.05
2023-05-18T13:17:59.554Z,2.38
2023-05-18T13:20:54.572Z,3.83
2023-05-18T13:23:44.398Z,3.33
2023-05-18T13:26:34.636Z,2.63
2023-05-18T13:29:24.412Z,2.38
2023-05-18T13:32:16.808Z,3.28
2023-05-18T13:35:09.435Z,2.70
2023-05-18T13:37:59.946Z,2.60
2023-05-18T13:40:49.939Z,2.70
2023-05-18T13:43:42.862Z,2.63
2023-05-18T13:46:38.141Z,2.67
2023-05-18T13:49:26.280Z,3.13
2023-05-18T13:52:14.764Z,2.70
2023-05-18T13:55:10.020Z,2.40
2023-05-18T13:58:01.160Z,3.08
2023-05-18T14:00:50.432Z,2.83
2023-05-18T14:03:41.271Z,3.13
2023-05-18T14:06:31.966Z,2.40
2023-05-18T14:09:22.449Z,3.53
2023-05-18T14:12:11.245Z,2.80
2023-05-18T14:15:00.543Z,2.83
2023-05-18T14:17:49.960Z,2.70
2023-05-18T14:20:39.532Z,2.63
2023-05-18T14:23:27.491Z,2.58
2023-05-18T14:26:16.855Z,2.33
2023-05-18T14:29:07.491Z,2.70
2023-05-18T14:31:58.042Z,3.10
2023-05-18T14:34:51.715Z,2.70
2023-05-18T14:37:40.797Z,2.45
2023-05-18T14:40:32.019Z,2.80
2023-05-18T14:43:20.624Z,2.70
2023-05-18T14:46:11.031Z,3.47
2023-05-18T14:49:00.135Z,4.13
2023-05-18T14:51:51.938Z,3.05
2023-05-18T14:54:42.521Z,3.00
2023-05-18T14:57:30.387Z,3.00
2023-05-18T15:00:18.429Z,2.60
2023-05-18T15:03:06.493Z,2.50
2023-05-18T15:05:55.933Z,3.10
2023-05-18T15:08:45.398Z,2.58
2023-05-18T15:11:36.801Z,2.90
2023-05-18T15:14:24.703Z,2.63
2023-05-18T15:17:13.625Z,2.60
2023-05-18T15:20:02.891Z,3.13
2023-05-18T15:22:51.121Z,3.42
2023-05-18T15:25:42.349Z,2.38
2023-05-18T15:28:32.475Z,2.95
2023-05-18T15:31:24.483Z,2.67
2023-05-18T15:34:13.713Z,2.63
2023-05-18T15:37:04.968Z,2.67
2023-05-18T15:39:54.975Z,3.25
2023-05-18T15:42:45.074Z,2.95
2023-05-18T15:45:37.537Z,2.55
2023-05-18T15:48:26.863Z,2.72
2023-05-18T15:51:17.339Z,3.50
2023-05-18T15:54:10.069Z,3.08
2023-05-18T15:57:03.039Z,2.78
2023-05-18T15:59:54.750Z,3.13
2023-05-18T16:02:45.070Z,2.67
2023-05-18T16:05:33.638Z,3.80
2023-05-18T16:08:21.600Z,2.45
2023-05-18T16:11:09.258Z,2.95
2023-05-18T16:13:57.364Z,2.95
2023-05-18T16:16:50.886Z,3.38
2023-05-18T16:19:42.775Z,3.08
2023-05-18T16:22:30.703Z,3.20
2023-05-18T16:25:20.247Z,3.50
2023-05-18T16:28:08.155Z,3.10
2023-05-18T16:30:56.267Z,3.10
2023-05-18T16:33:44.190Z,2.83
2023-05-18T16:36:34.773Z,2.75
2023-05-18T16:39:22.505Z,3.03
2023-05-18T16:42:13.403Z,2.63
2023-05-18T16:45:01.283Z,2.60
2023-05-18T16:47:49.402Z,2.60
2023-05-18T16:50:40.598Z,3.38
2023-05-18T16:53:28.411Z,2.80
2023-05-18T16:56:16.955Z,2.63
2023-05-18T16:59:07.780Z,2.95
2023-05-18T17:01:55.540Z,2.75
2023-05-18T17:04:49.713Z,2.72
2023-05-18T17:07:38.196Z,3.20
2023-05-18T17:10:25.924Z,3.50
2023-05-18T17:13:13.848Z,2.88
2023-05-18T17:16:04.918Z,3.00
2023-05-18T17:18:54.700Z,3.00
2023-05-18T17:21:42.772Z,2.90
2023-05-18T17:24:30.892Z,2.50
2023-05-18T17:27:18.704Z,2.60
2023-05-18T17:30:09.601Z,3.35
2023-05-18T17:32:57.332Z,2.72
2023-05-18T17:35:44.918Z,2.80
2023-05-18T17:38:32.706Z,2.88
2023-05-18T17:41:22.395Z,2.72
2023-05-18T17:44:14.018Z,2.50
2023-05-18T17:47:02.050Z,2.72
2023-05-18T17:49:50.220Z,3.17
2023-05-18T17:52:37.960Z,3.00
2023-05-18T17:55:25.692Z,2.38
2023-05-18T17:58:13.634Z,3.00
2023-05-18T18:01:02.004Z,3.17
2023-05-18T18:03:50.135Z,2.47
2023-05-18T18:06:40.481Z,3.22
2023-05-18T18:09:28.045Z,2.78
2023-05-18T18:12:16.944Z,2.67
2023-05-18T18:15:05.006Z,2.92
2023-05-18T18:17:52.750Z,3.50
2023-05-18T18:20:42.767Z,3.80
2023-05-18T18:23:30.458Z,2.50
2023-05-18T18:26:20.791Z,2.78
2023-05-18T18:29:08.431Z,2.67
2023-05-18T18:31:56.177Z,2.63
2023-05-18T18:34:44.419Z,2.67
2023-05-18T18:37:32.336Z,3.10
2023-05-18T18:40:21.116Z,2.38
2023-05-18T18:43:09.117Z,2.63
2023-05-18T18:45:57.438Z,2.60
2023-05-18T18:48:45.437Z,2.55
2023-05-18T18:51:33.372Z,2.53
2023-05-18T18:54:23.614Z,2.75
2023-05-18T18:57:12.204Z,2.65
2023-05-18T19:00:00.844Z,2.75
2023-05-18T19:02:48.653Z,2.88
2023-05-18T19:05:37.660Z,3.30
2023-05-18T19:08:25.503Z,2.35
2023-05-18T19:11:13.358Z,2.72
2023-05-18T19:14:01.046Z,2.90
2023-05-18T19:16:49.027Z,2.90
2023-05-18T19:19:37.765Z,3.17
2023-05-18T19:22:25.517Z,3.55
2023-05-18T19:25:13.152Z,3.08
2023-05-18T19:28:00.862Z,3.38
2023-05-18T19:30:49.744Z,2.95
2023-05-18T19:33:37.424Z,3.10
2023-05-18T19:36:25.189Z,3.22
2023-05-18T19:39:14.719Z,3.75
2023-05-18T19:42:02.546Z,3.45
2023-05-18T19:44:50.340Z,3.10
2023-05-18T19:47:40.260Z,2.83
2023-05-18T19:50:28.382Z,3.25
2023-05-18T19:53:16.889Z,3.17
2023-05-18T19:56:04.788Z,3.65
2023-05-18T19:58:52.963Z,3.17
2023-05-18T20:01:40.793Z,3.17
2023-05-18T20:04:28.895Z,3.33
2023-05-18T20:07:18.328Z,3.97
2023-05-18T20:10:07.115Z,2.92
2023-05-18T20:12:57.965Z,2.72
2023-05-18T20:15:47.084Z,3.58
2023-05-18T20:18:37.837Z,3.38
2023-05-18T20:21:28.980Z,2.97
2023-05-18T20:24:22.686Z,3.08
2023-05-18T20:27:13.928Z,2.97
2023-05-18T20:30:06.738Z,2.97
2023-05-18T20:32:59.057Z,3.72
2023-05-18T20:35:52.113Z,3.13
2023-05-18T20:38:40.640Z,3.33
2023-05-18T20:41:28.579Z,3.33
2023-05-18T20:44:17.709Z,2.88
2023-05-18T20:47:05.906Z,3.00
2023-05-18T20:49:53.855Z,3.03
2023-05-18T20:52:42.091Z,2.53
2023-05-18T20:55:29.862Z,3.60
2023-05-18T20:58:20.239Z,3.33
2023-05-18T21:01:08.719Z,3.72
2023-05-18T21:03:59.304Z,2.97
2023-05-18T21:06:49.535Z,3.03
2023-05-18T21:09:37.197Z,3.30
2023-05-18T21:12:25.051Z,3.25
2023-05-18T21:15:13.196Z,3.40
2023-05-18T21:18:01.612Z,2.65
2023-05-18T21:20:49.531Z,3.03
2023-05-18T21:23:38.002Z,3.00
2023-05-18T21:26:26.641Z,3.22
2023-05-18T21:29:14.712Z,3.10
2023-05-18T21:32:02.800Z,3.08
2023-05-18T21:34:50.502Z,3.13
2023-05-18T21:37:38.133Z,3.40
2023-05-18T21:40:27.801Z,3.17
2023-05-18T21:43:16.850Z,2.80
2023-05-18T21:46:06.439Z,3.08
2023-05-18T21:48:58.251Z,3.20
2023-05-18T21:51:48.618Z,3.30
2023-05-18T21:54:37.019Z,2.80
2023-05-18T21:57:25.245Z,2.60
2023-05-18T22:00:14.137Z,3.05
2023-05-18T22:03:02.060Z,2.92
2023-05-18T22:05:50.407Z,3.00
2023-05-18T22:08:38.659Z,2.70
2023-05-18T22:11:28.526Z,3.90
2023-05-18T22:14:17.727Z,2.88
2023-05-18T22:17:05.994Z,2.97
2023-05-18T22:19:54.015Z,3.35
2023-05-18T22:22:41.644Z,3.03
2023-05-18T22:25:29.407Z,2.83
2023-05-18T22:28:21.467Z,3.03
2023-05-18T22:31:11.594Z,3.38
2023-05-18T22:33:59.399Z,3.28
2023-05-18T22:36:49.690Z,3.00
2023-05-18T22:39:37.416Z,3.08
2023-05-18T22:42:25.128Z,3.08
2023-05-18T22:45:13.199Z,3.22
2023-05-18T22:48:01.596Z,3.33
2023-05-18T22:50:49.260Z,3.45
2023-05-18T22:53:37.246Z,3.35
2023-05-18T22:56:24.916Z,3.58
2023-05-18T22:59:12.607Z,4.20
2023-05-18T23:02:00.462Z,3.15
2023-05-18T23:04:48.565Z,3.40
2023-05-18T23:07:36.635Z,3.40
2023-05-18T23:10:26.589Z,3.28
2023-05-18T23:13:17.417Z,2.58
2023-05-18T23:16:05.953Z,3.35
2023-05-18T23:18:53.759Z,3.38
2023-05-18T23:21:41.497Z,3.03
2023-05-18T23:24:29.538Z,3.30
2023-05-18T23:27:17.867Z,3.50
2023-05-18T23:30:06.285Z,2.83
2023-05-18T23:32:54.744Z,3.40
2023-05-18T23:35:45.780Z,3.78
2023-05-18T23:38:35.168Z,3.20
2023-05-18T23:41:23.913Z,3.22
2023-05-18T23:44:12.084Z,3.17
2023-05-18T23:47:00.360Z,3.17
2023-05-18T23:49:48.230Z,3.42
2023-05-18T23:52:36.980Z,3.45
2023-05-18T23:55:26.898Z,3.10
2023-05-18T23:58:16.203Z,2.97
